createdAt,value
2019-06-10T00:00:21.221Z,94.30
2019-06-10T00:02:51.052Z,94.10
2019-06-10T00:05:21.604Z,94.00
2019-06-10T00:07:52.182Z,93.80
2019-06-10T00:10:22.546Z,93.70
2019-06-10T00:12:55.382Z,93.90
2019-06-10T00:15:26.269Z,93.70
2019-06-10T00:18:20.872Z,93.40
2019-06-10T00:20:30.587Z,93.50
2019-06-10T00:23:02.523Z,93.40
2019-06-10T00:25:32.603Z,93.50
2019-06-10T00:28:04.141Z,93.40
2019-06-10T00:30:34.642Z,93.30
2019-06-10T00:33:06.091Z,93.40
2019-06-10T00:35:36.883Z,94.00
2019-06-10T00:38:09.363Z,94.00
2019-06-10T00:40:41.464Z,93.70
2019-06-10T00:43:13.600Z,93.80
2019-06-10T00:45:44.411Z,93.30
2019-06-10T00:48:25.005Z,93.10
2019-06-10T00:50:46.410Z,93.10
2019-06-10T00:53:16.764Z,93.20
2019-06-10T00:55:47.197Z,92.80
2019-06-10T00:58:17.399Z,93.00
2019-06-10T01:00:47.932Z,93.10
2019-06-10T01:03:20.751Z,93.10
2019-06-10T01:05:50.896Z,93.10
2019-06-10T01:08:21.986Z,93.70
2019-06-10T01:10:52.409Z,93.60
2019-06-10T01:13:22.634Z,93.70
2019-06-10T01:15:53.068Z,93.60
2019-06-10T01:18:34.587Z,93.20
2019-06-10T01:20:55.337Z,93.60
2019-06-10T01:23:25.717Z,94.00
2019-06-10T01:25:56.055Z,94.20
2019-06-10T01:28:26.438Z,93.70
2019-06-10T01:30:56.964Z,94.50
2019-06-10T01:33:27.075Z,94.70
2019-06-10T01:35:57.442Z,94.50
2019-06-10T01:38:27.551Z,94.60
2019-06-10T01:40:57.675Z,95.60
2019-06-10T01:43:27.781Z,95.40
2019-06-10T01:45:58.875Z,95.70
2019-06-10T01:48:43.196Z,95.50
2019-06-10T01:51:02.037Z,96.20
2019-06-10T01:53:32.302Z,96.20
2019-06-10T01:56:02.417Z,96.80
2019-06-10T01:58:32.538Z,96.20
2019-06-10T02:01:15.639Z,96.50
2019-06-10T02:03:44.985Z,97.00
2019-06-10T02:06:18.241Z,97.50
2019-06-10T02:08:47.300Z,97.50
2019-06-10T02:11:18.949Z,99.10
2019-06-10T02:13:51.398Z,99.00
2019-06-10T02:16:24.016Z,99.30
2019-06-10T02:21:24.591Z,99.90
2019-06-10T02:23:54.848Z,99.90
2019-06-10T02:26:25.225Z,99.90
2019-06-10T02:28:55.706Z,99.90
2019-06-10T02:31:30.422Z,99.90
2019-06-10T02:33:58.341Z,99.90
2019-06-10T02:36:31.853Z,99.90
2019-06-10T02:39:04.203Z,99.90
2019-06-10T02:41:36.346Z,99.90
2019-06-10T02:44:06.404Z,99.90
2019-06-10T02:46:38.674Z,99.90
2019-06-10T02:49:26.477Z,99.90
2019-06-10T02:51:43.741Z,99.90
2019-06-10T02:54:15.598Z,99.90
2019-06-10T02:56:44.718Z,99.90
2019-06-10T02:59:16.210Z,99.90
2019-06-10T03:01:46.675Z,99.90
2019-06-10T03:04:18.309Z,99.90
2019-06-10T03:06:49.000Z,99.90
2019-06-10T03:09:21.685Z,99.90
2019-06-10T03:11:53.544Z,99.90
2019-06-10T03:14:25.272Z,99.90
2019-06-10T03:16:59.281Z,99.90
2019-06-10T03:19:41.672Z,99.90
2019-06-10T03:22:02.760Z,99.90
2019-06-10T03:24:33.011Z,99.90
2019-06-10T03:27:03.423Z,99.90
2019-06-10T03:29:33.898Z,99.90
2019-06-10T03:32:05.596Z,99.90
2019-06-10T03:34:41.445Z,99.90
2019-06-10T03:37:08.031Z,99.90
2019-06-10T03:39:38.222Z,99.90
2019-06-10T03:42:08.653Z,99.90
2019-06-10T03:44:39.147Z,99.90
2019-06-10T03:47:12.174Z,99.90
2019-06-10T03:49:52.289Z,99.90
2019-06-10T03:52:13.978Z,99.90
2019-06-10T03:54:44.101Z,99.90
2019-06-10T03:57:14.554Z,99.90
2019-06-10T03:59:44.661Z,99.90
2019-06-10T04:02:15.060Z,99.90
2019-06-10T04:04:45.673Z,99.90
2019-06-10T04:07:15.824Z,99.90
2019-06-10T04:09:45.951Z,99.90
2019-06-10T04:12:17.438Z,99.90
2019-06-10T04:14:47.940Z,99.90
2019-06-10T04:17:18.068Z,99.90
2019-06-10T04:19:48.689Z,99.90
2019-06-10T04:22:19.629Z,99.90
2019-06-10T04:24:51.954Z,99.90
2019-06-10T04:27:22.701Z,99.90
2019-06-10T04:29:53.690Z,99.90
2019-06-10T04:32:26.146Z,99.90
2019-06-10T04:34:56.534Z,99.90
2019-06-10T04:37:28.075Z,99.90
2019-06-10T04:39:59.333Z,99.90
2019-06-10T04:42:29.724Z,99.90
2019-06-10T04:45:00.071Z,99.90
2019-06-10T04:47:33.105Z,99.90
2019-06-10T04:50:03.306Z,99.90
2019-06-10T04:52:33.569Z,99.90
2019-06-10T04:55:03.762Z,99.90
2019-06-10T04:57:33.881Z,99.90
2019-06-10T05:00:11.183Z,99.90
2019-06-10T05:02:38.007Z,99.90
2019-06-10T05:05:08.391Z,99.90
2019-06-10T05:07:38.787Z,99.90
2019-06-10T05:10:09.546Z,99.90
2019-06-10T05:12:40.275Z,99.90
2019-06-10T05:15:12.565Z,99.90
2019-06-10T05:17:43.619Z,99.90
2019-06-10T05:20:14.998Z,99.90
2019-06-10T05:22:45.404Z,99.90
2019-06-10T05:25:16.813Z,99.90
2019-06-10T05:27:47.170Z,99.90
2019-06-10T05:30:17.286Z,99.90
2019-06-10T05:32:48.239Z,99.90
2019-06-10T05:35:18.318Z,99.90
2019-06-10T05:37:48.679Z,99.90
2019-06-10T05:40:22.158Z,99.90
2019-06-10T05:42:52.885Z,99.90
2019-06-10T05:45:25.832Z,99.90
2019-06-10T05:47:56.279Z,99.90
2019-06-10T05:50:26.813Z,99.90
2019-06-10T05:52:56.987Z,99.90
2019-06-10T05:55:27.119Z,99.90
2019-06-10T05:57:58.235Z,99.90
2019-06-10T06:00:29.541Z,99.90
2019-06-10T06:03:02.632Z,99.90
2019-06-10T06:05:33.261Z,99.90
2019-06-10T06:08:08.548Z,99.90
2019-06-10T06:10:37.735Z,99.90
2019-06-10T06:13:08.112Z,99.90
2019-06-10T06:15:38.495Z,99.90
2019-06-10T06:18:10.766Z,99.90
2019-06-10T06:20:43.485Z,99.90
2019-06-10T06:23:12.949Z,99.90
2019-06-10T06:25:46.909Z,99.90
2019-06-10T06:28:16.316Z,99.90
2019-06-10T06:30:46.667Z,99.90
2019-06-10T06:33:16.899Z,99.90
2019-06-10T06:35:47.012Z,99.90
2019-06-10T06:38:17.436Z,99.90
2019-06-10T06:40:47.540Z,99.90
2019-06-10T06:43:18.131Z,99.90
2019-06-10T06:45:48.506Z,99.90
2019-06-10T06:48:19.775Z,99.90
2019-06-10T06:51:01.795Z,99.90
2019-06-10T06:53:32.709Z,99.90
2019-06-10T06:55:56.008Z,99.90
2019-06-10T06:58:26.473Z,99.90
2019-06-10T07:01:09.560Z,99.90
2019-06-10T07:03:29.694Z,99.90
2019-06-10T07:06:02.617Z,99.90
2019-06-10T07:08:36.100Z,99.90
2019-06-10T07:11:05.866Z,99.90
2019-06-10T07:13:39.502Z,99.90
2019-06-10T07:16:09.896Z,99.90
2019-06-10T07:18:45.499Z,99.90
2019-06-10T07:21:13.219Z,99.90
2019-06-10T07:23:46.845Z,99.90
2019-06-10T07:26:16.140Z,99.90
2019-06-10T07:28:47.527Z,99.90
2019-06-10T07:31:23.995Z,99.90
2019-06-10T07:33:52.543Z,99.90
2019-06-10T07:36:23.693Z,99.90
2019-06-10T07:38:54.263Z,99.90
2019-06-10T07:41:24.740Z,99.90
2019-06-10T07:43:54.867Z,99.90
2019-06-10T07:46:25.950Z,99.90
2019-06-10T07:48:57.267Z,99.90
2019-06-10T07:51:27.650Z,99.90
2019-06-10T07:53:58.108Z,99.90
2019-06-10T07:56:31.729Z,99.90
2019-06-10T07:59:02.883Z,99.90
2019-06-10T08:01:34.346Z,99.90
2019-06-10T08:04:05.175Z,99.90
2019-06-10T08:06:36.435Z,99.90
2019-06-10T08:09:07.568Z,99.90
2019-06-10T08:11:37.711Z,99.90
2019-06-10T08:14:08.149Z,99.90
2019-06-10T08:16:38.311Z,99.90
2019-06-10T08:19:26.194Z,99.90
2019-06-10T08:21:44.112Z,99.90
2019-06-10T08:24:12.964Z,99.90
2019-06-10T08:26:45.530Z,99.90
2019-06-10T08:29:15.315Z,99.90
2019-06-10T08:31:48.403Z,99.90
2019-06-10T08:34:18.343Z,99.90
2019-06-10T08:36:50.643Z,99.90
2019-06-10T08:39:23.057Z,99.90
2019-06-10T08:41:52.933Z,99.90
2019-06-10T08:44:27.115Z,99.90
2019-06-10T08:46:57.731Z,99.90
2019-06-10T08:49:28.377Z,99.90
2019-06-10T08:51:59.096Z,99.90
2019-06-10T08:54:29.350Z,99.90
2019-06-10T08:57:03.411Z,99.90
2019-06-10T08:59:32.686Z,99.90
2019-06-10T09:02:03.290Z,99.30
2019-06-10T09:04:33.440Z,99.90
2019-06-10T09:07:04.431Z,99.90
2019-06-10T09:09:34.953Z,99.90
2019-06-10T09:12:05.267Z,99.00
2019-06-10T09:14:36.622Z,99.40
2019-06-10T09:17:07.272Z,99.50
2019-06-10T09:19:38.765Z,98.40
2019-06-10T09:22:09.571Z,98.40
2019-06-10T09:24:40.883Z,97.60
2019-06-10T09:27:13.405Z,97.90
2019-06-10T09:29:48.862Z,97.00
2019-06-10T09:32:20.013Z,98.70
2019-06-10T09:34:54.733Z,99.90
2019-06-10T09:37:23.370Z,99.20
2019-06-10T09:39:59.220Z,99.60
2019-06-10T09:42:25.678Z,98.90
2019-06-10T09:44:57.197Z,98.90
2019-06-10T09:47:28.186Z,98.40
2019-06-10T09:50:03.033Z,97.80
2019-06-10T09:52:32.960Z,97.90
2019-06-10T09:55:05.198Z,98.40
2019-06-10T09:57:35.816Z,99.00
2019-06-10T10:00:12.285Z,98.40
2019-06-10T10:02:52.616Z,97.80
2019-06-10T10:05:23.413Z,97.20
2019-06-10T10:07:57.283Z,97.80
2019-06-10T10:10:48.021Z,97.10
2019-06-10T10:13:16.642Z,96.90
2019-06-10T10:15:58.660Z,96.80
2019-06-10T10:18:29.069Z,95.90
2019-06-10T10:21:03.550Z,95.30
2019-06-10T10:23:50.410Z,94.10
2019-06-10T10:26:07.781Z,94.40
2019-06-10T10:28:38.389Z,94.50
2019-06-10T10:31:08.731Z,94.90
2019-06-10T10:33:39.075Z,94.90
2019-06-10T10:36:14.020Z,94.90
2019-06-10T10:38:46.798Z,93.30
2019-06-10T10:41:17.019Z,94.00
2019-06-10T10:43:48.883Z,95.40
2019-06-10T10:46:23.097Z,97.00
2019-06-10T10:48:56.459Z,95.00
2019-06-10T10:51:33.992Z,95.00
2019-06-10T10:54:21.211Z,94.40
2019-06-10T10:56:35.967Z,94.40
2019-06-10T10:59:06.152Z,94.50
2019-06-10T11:01:38.621Z,94.60
2019-06-10T11:04:09.695Z,95.20
2019-06-10T11:06:42.530Z,96.50
2019-06-10T11:09:13.000Z,95.70
2019-06-10T11:11:47.138Z,97.00
2019-06-10T11:14:17.728Z,96.60
2019-06-10T11:16:49.409Z,96.10
2019-06-10T11:19:22.125Z,95.90
2019-06-10T11:21:51.924Z,96.20
2019-06-10T11:24:33.573Z,96.60
2019-06-10T11:26:56.498Z,96.40
2019-06-10T11:29:27.281Z,96.50
2019-06-10T11:31:58.806Z,96.90
2019-06-10T11:34:29.520Z,97.00
2019-06-10T11:37:02.282Z,97.10
2019-06-10T11:39:34.271Z,97.30
2019-06-10T11:42:09.144Z,97.30
2019-06-10T11:44:39.794Z,98.10
2019-06-10T11:47:12.577Z,96.80
2019-06-10T11:49:43.563Z,96.30
2019-06-10T11:52:14.790Z,97.60
2019-06-10T11:54:55.837Z,97.10
2019-06-10T11:57:18.034Z,97.40
2019-06-10T11:59:48.383Z,97.00
2019-06-10T12:02:18.542Z,96.90
2019-06-10T12:04:48.722Z,98.00
2019-06-10T12:07:19.078Z,98.70
2019-06-10T12:09:50.846Z,99.10
2019-06-10T12:12:22.025Z,99.80
2019-06-10T12:15:01.296Z,99.50
2019-06-10T12:17:42.918Z,99.90
2019-06-10T12:20:03.489Z,99.90
2019-06-10T12:22:33.887Z,99.90
2019-06-10T12:25:30.479Z,99.90
2019-06-10T12:27:36.237Z,99.90
2019-06-10T12:30:07.146Z,99.90
2019-06-10T12:32:37.332Z,99.90
2019-06-10T12:35:08.724Z,99.90
2019-06-10T12:37:39.615Z,99.90
2019-06-10T12:40:12.609Z,99.90
2019-06-10T12:42:42.338Z,99.90
2019-06-10T12:45:13.083Z,99.90
2019-06-10T12:47:43.671Z,99.90
2019-06-10T12:50:15.394Z,99.90
2019-06-10T12:52:46.722Z,99.90
2019-06-10T12:55:18.172Z,99.90
2019-06-10T12:57:48.610Z,99.90
2019-06-10T13:00:25.786Z,99.90
2019-06-10T13:02:58.071Z,99.90
2019-06-10T13:05:29.622Z,99.90
2019-06-10T13:08:03.853Z,99.90
2019-06-10T13:10:38.130Z,99.90
2019-06-10T13:13:09.311Z,99.90
2019-06-10T13:15:43.163Z,99.90
2019-06-10T13:18:18.906Z,99.90
2019-06-10T13:20:45.320Z,99.90
2019-06-10T13:23:23.835Z,99.90
2019-06-10T13:25:54.603Z,99.90
2019-06-10T13:28:22.093Z,99.90
2019-06-10T13:30:54.592Z,99.90
2019-06-10T13:33:23.465Z,99.90
2019-06-10T13:35:57.096Z,98.80
2019-06-10T13:38:28.234Z,99.90
2019-06-10T13:40:59.482Z,99.90
2019-06-10T13:43:35.853Z,99.90
2019-06-10T13:46:09.003Z,99.90
2019-06-10T13:48:37.829Z,99.30
2019-06-10T13:51:11.903Z,99.10
2019-06-10T13:53:42.669Z,98.60
2019-06-10T13:56:37.989Z,98.60
2019-06-10T13:58:48.183Z,98.10
2019-06-10T14:01:22.046Z,98.40
2019-06-10T14:03:50.219Z,99.00
2019-06-10T14:06:37.084Z,97.90
2019-06-10T14:08:54.848Z,97.80
2019-06-10T14:11:28.685Z,98.00
2019-06-10T14:13:57.701Z,98.70
2019-06-10T14:16:28.052Z,98.30
2019-06-10T14:18:58.526Z,98.90
2019-06-10T14:21:28.690Z,97.60
2019-06-10T14:23:58.797Z,97.70
2019-06-10T14:26:37.867Z,98.40
2019-06-10T14:29:03.018Z,98.70
2019-06-10T14:31:43.593Z,98.30
2019-06-10T14:34:08.950Z,99.20
2019-06-10T14:36:38.207Z,99.00
2019-06-10T14:39:10.056Z,99.70
2019-06-10T14:41:43.031Z,99.90
2019-06-10T14:44:16.114Z,99.90
2019-06-10T14:46:45.073Z,99.90
2019-06-10T14:49:16.884Z,99.90
2019-06-10T14:51:47.291Z,99.60
2019-06-10T14:54:18.499Z,99.70
2019-06-10T14:56:53.602Z,99.50
2019-06-10T14:59:22.446Z,99.90
2019-06-10T15:01:53.012Z,99.90
2019-06-10T15:04:23.931Z,99.90
2019-06-10T15:06:54.297Z,98.40
2019-06-10T15:09:24.480Z,97.70
2019-06-10T15:11:54.887Z,95.10
2019-06-10T15:14:25.225Z,94.30
2019-06-10T15:16:55.353Z,92.00
2019-06-10T15:19:29.021Z,90.30
2019-06-10T15:21:59.262Z,89.70
2019-06-10T15:24:29.392Z,89.90
2019-06-10T15:27:10.113Z,90.10
2019-06-10T15:29:32.864Z,91.20
2019-06-10T15:32:14.129Z,90.80
2019-06-10T15:34:43.005Z,91.70
2019-06-10T15:37:16.715Z,90.40
2019-06-10T15:39:46.674Z,90.30
2019-06-10T15:42:17.820Z,86.90
2019-06-10T15:44:55.101Z,82.60
2019-06-10T15:47:26.136Z,83.40
2019-06-10T15:49:53.953Z,81.10
2019-06-10T15:52:25.250Z,82.50
2019-06-10T15:54:57.834Z,84.20
2019-06-10T15:57:39.204Z,84.90
2019-06-10T16:00:02.761Z,84.20
2019-06-10T16:02:33.778Z,85.50
2019-06-10T16:05:04.424Z,88.60
2019-06-10T16:07:34.819Z,90.00
2019-06-10T16:10:06.152Z,90.30
2019-06-10T16:12:36.758Z,89.50
2019-06-10T16:15:08.280Z,89.50
2019-06-10T16:17:38.371Z,89.60
2019-06-10T16:20:08.948Z,90.60
2019-06-10T16:22:39.303Z,90.90
2019-06-10T16:25:09.770Z,90.80
2019-06-10T16:27:47.244Z,90.70
2019-06-10T16:30:14.549Z,91.30
2019-06-10T16:32:46.527Z,91.70
2019-06-10T16:35:17.022Z,92.30
2019-06-10T16:37:47.145Z,92.90
2019-06-10T16:40:19.605Z,92.90
2019-06-10T16:42:50.488Z,92.90
2019-06-10T16:45:26.999Z,93.00
2019-06-10T16:47:53.153Z,93.30
2019-06-10T16:50:25.711Z,93.60
2019-06-10T16:52:55.258Z,94.00
2019-06-10T16:55:27.222Z,93.80
2019-06-10T16:57:59.718Z,94.10
2019-06-10T17:00:30.784Z,94.50
2019-06-10T17:03:02.122Z,94.20
2019-06-10T17:05:33.173Z,94.80
2019-06-10T17:08:04.550Z,95.20
2019-06-10T17:10:34.690Z,95.50
2019-06-10T17:13:07.218Z,95.90
2019-06-10T17:15:37.408Z,96.30
2019-06-10T17:18:07.490Z,96.10
2019-06-10T17:20:37.929Z,96.00
2019-06-10T17:23:26.010Z,96.80
2019-06-10T17:25:55.730Z,97.10
2019-06-10T17:28:30.741Z,96.80
2019-06-10T17:30:59.208Z,97.90
2019-06-10T17:33:30.466Z,97.10
2019-06-10T17:36:03.353Z,97.10
2019-06-10T17:38:33.339Z,97.40
2019-06-10T17:41:04.775Z,97.70
2019-06-10T17:43:36.150Z,97.40
2019-06-10T17:46:06.462Z,97.50
2019-06-10T17:48:36.812Z,97.20
2019-06-10T17:51:07.165Z,97.50
2019-06-10T17:53:37.583Z,97.30
2019-06-10T17:56:09.460Z,96.90
2019-06-10T17:58:53.365Z,96.10
2019-06-10T18:01:13.025Z,95.70
2019-06-10T18:03:43.581Z,95.60
2019-06-10T18:06:14.035Z,96.30
2019-06-10T18:08:44.163Z,96.90
2019-06-10T18:11:14.264Z,97.10
2019-06-10T18:13:44.681Z,97.50
2019-06-10T18:16:16.135Z,98.10
2019-06-10T18:18:48.714Z,98.80
2019-06-10T18:21:19.035Z,99.20
2019-06-10T18:23:49.218Z,99.40
2019-06-10T18:26:19.322Z,99.90
2019-06-10T18:29:04.894Z,99.90
2019-06-10T18:31:23.389Z,99.90
2019-06-10T18:33:54.786Z,99.90
2019-06-10T18:36:26.107Z,99.90
2019-06-10T18:38:56.837Z,99.90
2019-06-10T18:41:27.955Z,99.90
2019-06-10T18:43:59.341Z,99.90
2019-06-10T18:46:33.243Z,99.90
2019-06-10T18:49:02.902Z,99.90
2019-06-10T18:51:36.043Z,99.90
2019-06-10T18:54:06.165Z,99.90
2019-06-10T18:56:37.727Z,99.90
2019-06-10T18:59:16.618Z,99.90
2019-06-10T19:01:42.329Z,99.90
2019-06-10T19:04:13.004Z,99.90
2019-06-10T19:06:44.462Z,99.90
2019-06-10T19:09:14.554Z,99.90
2019-06-10T19:11:44.722Z,99.90
2019-06-10T19:14:15.780Z,99.90
2019-06-10T19:16:45.867Z,99.90
2019-06-10T19:19:16.555Z,99.90
2019-06-10T19:22:01.820Z,99.90
2019-06-10T19:24:19.562Z,99.90
2019-06-10T19:26:52.603Z,99.90
2019-06-10T19:29:33.635Z,99.90
2019-06-10T19:31:55.438Z,99.90
2019-06-10T19:34:25.573Z,99.90
2019-06-10T19:36:56.012Z,99.90
2019-06-10T19:39:26.349Z,99.90
2019-06-10T19:41:57.907Z,99.90
2019-06-10T19:44:28.255Z,99.90
2019-06-10T19:46:59.046Z,99.90
2019-06-10T19:49:34.199Z,99.90
2019-06-10T19:52:05.740Z,99.90
2019-06-10T19:54:36.996Z,99.90
2019-06-10T19:57:08.542Z,99.90
2019-06-10T19:59:58.417Z,99.90
2019-06-10T20:02:10.843Z,99.90
2019-06-10T20:04:42.849Z,99.90
2019-06-10T20:07:13.427Z,99.90
2019-06-10T20:09:46.154Z,99.90
2019-06-10T20:12:15.895Z,99.90
2019-06-10T20:14:47.861Z,99.90
2019-06-10T20:17:18.129Z,99.90
2019-06-10T20:19:48.311Z,99.90
2019-06-10T20:22:19.255Z,99.90
2019-06-10T20:24:49.695Z,99.90
2019-06-10T20:27:22.708Z,99.90
2019-06-10T20:30:06.636Z,99.90
2019-06-10T20:32:24.908Z,99.90
2019-06-10T20:34:55.070Z,99.90
2019-06-10T20:37:25.195Z,99.90
2019-06-10T20:39:55.631Z,99.90
2019-06-10T20:42:26.695Z,99.90
2019-06-10T20:44:57.453Z,99.90
2019-06-10T20:47:27.827Z,99.90
2019-06-10T20:49:58.180Z,99.90
2019-06-10T20:52:29.254Z,99.90
2019-06-10T20:55:02.336Z,99.90
2019-06-10T20:57:33.076Z,99.90
2019-06-10T21:00:18.760Z,99.90
2019-06-10T21:02:38.943Z,99.90
2019-06-10T21:05:11.025Z,99.90
2019-06-10T21:07:43.784Z,99.90
2019-06-10T21:10:18.095Z,99.90
2019-06-10T21:12:49.776Z,99.90
2019-06-10T21:15:22.839Z,99.90
2019-06-10T21:17:52.771Z,99.90
2019-06-10T21:20:23.148Z,99.90
2019-06-10T21:22:53.650Z,99.90
2019-06-10T21:25:24.099Z,99.90
2019-06-10T21:27:54.295Z,99.90
2019-06-10T21:30:37.557Z,99.90
2019-06-10T21:32:57.463Z,99.90
2019-06-10T21:35:27.859Z,99.90
2019-06-10T21:37:57.972Z,99.90
2019-06-10T21:40:28.726Z,99.90
2019-06-10T21:43:02.567Z,99.90
2019-06-10T21:45:32.565Z,99.90
2019-06-10T21:48:03.122Z,99.90
2019-06-10T21:50:33.801Z,99.90
2019-06-10T21:53:04.509Z,99.90
2019-06-10T21:55:34.963Z,99.90
2019-06-10T21:58:07.434Z,99.90
2019-06-10T22:00:58.655Z,99.90
2019-06-10T22:03:20.371Z,99.90
2019-06-10T22:05:51.641Z,99.90
2019-06-10T22:08:22.182Z,99.90
2019-06-10T22:10:55.008Z,99.90
2019-06-10T22:13:25.055Z,99.90
2019-06-10T22:15:56.933Z,99.90
2019-06-10T22:18:27.608Z,99.90
2019-06-10T22:20:58.024Z,99.90
2019-06-10T22:23:28.401Z,99.90
2019-06-10T22:25:59.077Z,99.90
2019-06-10T22:28:29.423Z,99.90
2019-06-10T22:31:15.186Z,99.90
2019-06-10T22:33:31.334Z,99.90
2019-06-10T22:36:02.354Z,99.90
2019-06-10T22:38:33.646Z,99.90
2019-06-10T22:41:03.829Z,99.90
2019-06-10T22:43:35.514Z,99.90
2019-06-10T22:46:05.623Z,99.90
2019-06-10T22:48:35.987Z,99.90
2019-06-10T22:51:06.078Z,99.90
2019-06-10T22:53:36.508Z,99.90
2019-06-10T22:56:07.339Z,99.90
2019-06-10T22:58:38.800Z,99.90
2019-06-10T23:01:08.977Z,99.90
2019-06-10T23:03:39.378Z,99.90
2019-06-10T23:06:09.770Z,99.90
2019-06-10T23:08:40.102Z,99.90
2019-06-10T23:11:10.218Z,99.90
2019-06-10T23:13:42.307Z,99.90
2019-06-10T23:16:13.021Z,99.90
2019-06-10T23:18:43.193Z,99.90
2019-06-10T23:21:13.551Z,99.90
2019-06-10T23:23:43.908Z,99.90
2019-06-10T23:26:14.741Z,99.90
2019-06-10T23:28:45.106Z,99.90
2019-06-10T23:31:15.224Z,99.90
2019-06-10T23:33:45.407Z,99.90
2019-06-10T23:36:15.978Z,99.90
2019-06-10T23:38:46.326Z,99.90
2019-06-10T23:41:16.417Z,99.90
2019-06-10T23:43:46.670Z,99.90
2019-06-10T23:46:17.310Z,99.90
2019-06-10T23:48:47.428Z,99.90
2019-06-10T23:51:17.797Z,99.90
2019-06-10T23:53:49.005Z,99.90
2019-06-10T23:56:19.331Z,99.90
2019-06-10T23:58:52.361Z,99.90
